Flight Track Log - Related Links

Times and Time Zones

All times are in EDT time to prevent confusion due to time zone crossing. See the AAY875 flight status page for this flight to view local times or setup timezone preferences in your user account.

Time Position Orientation Groundspeed Altitude Reporting Facility
EDT Latitude Longitude Course Direction KTS MPH feet Rate Location/Type
Sat 03:55:04 PM 44.7667 -68.7750 223° Southwest 200 230 2,700  Level Boston Center
Sat 03:56:06 PM 44.7150 -68.8333 219° Southwest 260 299 6,300 3,317 Climbing Boston Center
Sat 03:57:07 PM 44.6819 -68.9250 243° Southwest 260 299 9,500 2,361 Climbing Boston Center
Sat 03:58:08 PM 44.6436 -69.0272 242° Southwest 287 330 11,100 1,525 Climbing Boston Center
Sat 03:59:09 PM 44.5975 -69.1489 242° Southwest 333 383 12,600 1,770 Climbing Boston Center
Sat 04:00:00 PM 44.3135 -69.4734 223° Southwest  Level FlightAware Approximate
Sat 04:00:10 PM 44.5356 -69.2686 234° Southwest 374 430 14,700  Level Boston Center
Sat 04:01:11 PM 44.4633 -69.3700 225° Southwest 368 423 17,400 1,869 Climbing Boston Center
Sat 04:02:12 PM 44.3872 -69.4725 224° Southwest 373 429 18,500 1,171 Climbing Boston Center
Sat 04:03:14 PM 44.3058 -69.5867 225° Southwest 408 470 19,800 1,366 Climbing Boston Center
Sat 04:04:15 PM 44.2219 -69.7022 225° Southwest 416 479 21,300 1,574 Climbing Boston Center
Sat 04:05:16 PM 44.1386 -69.8189 225° Southwest 420 483 23,000 1,525 Climbing Boston Center
Sat 04:06:17 PM 44.0528 -69.9344 224° Southwest 422 486 24,400 1,475 Climbing Boston Center
Sat 04:07:18 PM 43.9681 -70.0508 225° Southwest 426 490 26,000 1,328 Climbing Boston Center
Sat 04:08:19 PM 43.8844 -70.1653 225° Southwest 423 487 27,100 1,122 Climbing Boston Center
Sat 04:09:21 PM 43.8003 -70.2797 224° Southwest 421 484 28,300 1,317 Climbing Boston Center
Sat 04:10:22 PM 43.7164 -70.3922 224° Southwest 418 481 29,800 1,230 Climbing Boston Center
Sat 04:11:23 PM 43.6342 -70.5003 224° Southwest 407 468 30,800 934 Climbing Boston Center
Sat 04:12:24 PM 43.5528 -70.6094 224° Southwest 406 467 31,700 590 Climbing Boston Center
Sat 04:13:25 PM 43.4714 -70.7175 224° Southwest 405 466 32,000 1,131 Climbing Boston Center
Sat 04:14:26 PM 43.3811 -70.8375 224° Southwest 401 461 34,000 634 Climbing Boston Center
Sat 04:15:28 PM 43.3003 -70.9469 225° Southwest 404 465 33,300 -98 Descending Boston Center
Sat 04:16:29 PM 43.2206 -71.0503 223° Southwest 400 460 33,800 344 Climbing Boston Center
Sat 04:17:30 PM 43.1406 -71.1586 225° Southwest 401 461 34,000 98 Climbing Boston Center
Sat 04:18:31 PM 43.0567 -71.2719 225° Southwest 420 483 34,000  Level Boston Center
Sat 04:19:32 PM 42.9758 -71.3808 225° Southwest 415 478 34,000  Level Boston Center
Sat 04:20:33 PM 42.8786 -71.5122 225° Southwest 414 476 34,000  Level Boston Center
Sat 04:21:34 PM 42.8022 -71.6147 225° Southwest 414 476 34,000  Level Boston Center
Sat 04:22:36 PM 42.7197 -71.7236 224° Southwest 414 476 34,000  Level Boston Center
Sat 04:23:37 PM 42.6383 -71.8331 225° Southwest 414 476 34,000  Level Boston Center
Sat 04:24:38 PM 42.5564 -71.9403 224° Southwest 414 476 34,000  Level Boston Center
Sat 04:25:39 PM 42.4769 -72.0464 225° Southwest 407 468 34,000  Level Boston Center
Sat 04:26:40 PM 42.3953 -72.1517 224° Southwest 406 467 34,000  Level Boston Center
Sat 04:27:41 PM 42.3144 -72.2575 224° Southwest 406 467 34,000  Level Boston Center
Sat 04:28:42 PM 42.2169 -72.3844 224° Southwest 406 467 34,000  Level Boston Center
Sat 04:29:43 PM 42.1347 -72.4906 224° Southwest 406 467 34,000  Level Boston Center
Sat 04:30:44 PM 42.0519 -72.5953 223° Southwest 406 467 34,000  Level Boston Center
Sat 04:31:46 PM 41.9697 -72.7028 224° Southwest 407 468 34,000  Level Boston Center
Sat 04:32:47 PM 41.8928 -72.8156 228° Southwest 407 468 34,000  Level Boston Center
Sat 04:33:48 PM 41.8150 -72.9294 228° Southwest 409 471 34,000 -49 Level Boston Center
Sat 04:34:49 PM 41.7372 -73.0428 227° Southwest 409 471 33,900  Descending Boston Center
Sat 04:35:50 PM 41.6608 -73.1556 228° Southwest 409 471 34,000 49 Climbing Boston Center
Sat 04:36:51 PM 41.5828 -73.2692 227° Southwest 410 472 34,000  Level Boston Center
Sat 04:37:52 PM 41.4972 -73.3928 227° Southwest 409 471 34,000  Level Boston Center
Sat 04:38:54 PM 41.4208 -73.5053 228° Southwest 409 471 34,000  Level Boston Center
Sat 04:39:55 PM 41.3436 -73.6150 227° Southwest 409 471 34,000  Level Boston Center
Sat 04:40:56 PM 41.2669 -73.7258 227° Southwest 409 471 34,000  Level Boston Center
Sat 04:41:57 PM 41.1900 -73.8344 227° Southwest 409 471 34,000  Level Boston Center
Sat 04:42:54 PM 41.1147 -73.9492 229° Southwest 413 475 34,000  Level New York Center
Sat 04:43:53 PM 41.0325 -74.0608 226° Southwest 413 475 34,000  Level New York Center
Sat 04:44:54 PM 40.9500 -74.1778 227° Southwest 422 486 34,000 -50 Level New York Center
Sat 04:45:54 PM 40.8783 -74.2756 226° Southwest 422 486 33,900 -50 Descending New York Center
Sat 04:46:53 PM 40.8022 -74.3842 227° Southwest 416 479 33,900  Level New York Center
Sat 04:47:53 PM 40.7278 -74.5008 230° Southwest 416 479 33,900  Level New York Center
Sat 04:48:54 PM 40.6575 -74.6144 231° Southwest 416 479 33,900  Level New York Center
Sat 04:49:52 PM 40.5867 -74.7336 232° Southwest 416 479 33,900  Level New York Center
Sat 04:50:53 PM 40.5081 -74.8436 227° Southwest 416 479 33,900  Level New York Center
Sat 04:51:53 PM 40.4292 -74.9561 227° Southwest 421 484 33,900  Level New York Center
Sat 04:52:54 PM 40.3519 -75.0686 228° Southwest 427 491 33,900  Level New York Center
Sat 04:53:52 PM 40.2753 -75.1753 227° Southwest 427 491 33,900  Level New York Center
Sat 04:54:55 PM 40.1894 -75.2950 227° Southwest 421 484 33,900  Level New York Center
Sat 04:55:52 PM 40.1142 -75.4042 228° Southwest 421 484 33,900  Level New York Center
Sat 04:56:54 PM 40.0350 -75.5128 226° Southwest 421 484 33,900  Level New York Center
Sat 04:57:52 PM 39.9553 -75.6236 227° Southwest 421 484 33,900  Level New York Center
Sat 04:58:53 PM 39.8797 -75.7375 229° Southwest 421 484 33,900  Level New York Center
Sat 04:59:54 PM 39.8058 -75.8539 230° Southwest 426 490 33,900  Level New York Center
Sat 05:00:54 PM 39.7342 -75.9703 231° Southwest 426 490 33,900  Level New York Center
Sat 05:01:52 PM 39.6622 -76.0861 231° Southwest 426 490 33,900  Level New York Center
Sat 05:03:27 PM 39.5578 -76.2400 229° Southwest 412 474 33,900  Level Washington Center
Sat 05:04:31 PM 39.4722 -76.3781 231° Southwest 412 474 33,900  Level Washington Center
Sat 05:05:32 PM 39.3992 -76.4908 230° Southwest 411 473 33,900 49 Level Washington Center
Sat 05:06:33 PM 39.3261 -76.6072 231° Southwest 403 464 34,000 48 Climbing Washington Center
Sat 05:07:36 PM 39.2539 -76.7172 230° Southwest 401 461 34,000  Level Washington Center
Sat 05:08:39 PM 39.1839 -76.8269 231° Southwest 398 458 34,000  Level Washington Center
Sat 05:09:40 PM 39.1133 -76.9364 230° Southwest 398 458 34,000  Level Washington Center
Sat 05:10:44 PM 39.0394 -77.0450 229° Southwest 399 459 34,000  Level Washington Center
Sat 05:11:44 PM 38.9333 -77.1600 220° Southwest 410 472 34,000  Level Washington Center
Sat 05:12:48 PM 38.8464 -77.2572 221° Southwest 411 473 34,000  Level Washington Center
Sat 05:13:49 PM 38.7589 -77.3531 221° Southwest 411 473 34,000  Level Washington Center
Sat 05:14:49 PM 38.6719 -77.4475 220° Southwest 410 472 34,000  Level Washington Center
Sat 05:15:53 PM 38.5731 -77.5556 221° Southwest 416 479 34,000  Level Washington Center
Sat 05:16:56 PM 38.4967 -77.6361 220° Southwest 404 465 34,000  Level Washington Center
Sat 05:17:57 PM 38.4081 -77.7311 220° Southwest 407 468 34,000  Level Washington Center
Sat 05:19:01 PM 38.3019 -77.8467 221° Southwest 415 478 34,000  Level Washington Center
Sat 05:20:01 PM 38.2119 -77.9439 220° Southwest 419 482 34,000  Level Washington Center
Sat 05:21:02 PM 38.1211 -78.0400 220° Southwest 420 483 34,000  Level Washington Center
Sat 05:22:06 PM 38.0308 -78.1350 220° Southwest 421 484 34,000 -48 Level Washington Center
Sat 05:23:07 PM 37.9275 -78.2367 218° Southwest 422 486 33,900  Descending Washington Center
Sat 05:24:11 PM 37.8367 -78.3225 217° Southwest 420 483 34,000 48 Climbing Washington Center
Sat 05:25:12 PM 37.7456 -78.4083 217° Southwest 419 482 34,000  Level Washington Center
Sat 05:26:13 PM 37.6564 -78.4953 218° Southwest 417 480 34,000  Level Washington Center
Sat 05:27:17 PM 37.5472 -78.6000 217° Southwest 417 480 34,000  Level Washington Center
Sat 05:28:18 PM 37.4542 -78.6853 216° Southwest 421 484 34,000  Level Washington Center
Sat 05:29:22 PM 37.3617 -78.7725 217° Southwest 423 487 34,000  Level Washington Center
Sat 05:30:22 PM 37.2508 -78.8739 216° Southwest 422 486 34,000  Level Washington Center
Sat 05:31:26 PM 37.1517 -78.9525 212° Southwest 428 493 34,000  Level Washington Center
Sat 05:32:26 PM 37.0542 -79.0300 212° Southwest 427 491 34,000  Level Washington Center
Sat 05:33:30 PM 36.9572 -79.1097 213° Southwest 427 491 34,000  Level Washington Center
Sat 05:34:30 PM 36.8375 -79.2058 213° Southwest 436 502 34,000  Level Washington Center
Sat 05:35:34 PM 36.7378 -79.2853 213° Southwest 437 503 34,000  Level Washington Center
Sat 05:36:34 PM 36.6400 -79.3625 212° Southwest 431 496 34,000  Level Washington Center
Sat 05:37:38 PM 36.5231 -79.4536 212° Southwest 426 490 34,000  Level Washington Center
Sat 05:38:38 PM 36.4256 -79.5356 214° Southwest 429 494 34,000  Level Washington Center
Sat 05:39:42 PM 36.3186 -79.6169 212° Southwest 423 487 34,000  Level Washington Center
Sat 05:40:43 PM 36.2192 -79.6958 213° Southwest 423 487 34,000  Level Washington Center
Sat 05:41:46 PM 36.1194 -79.7747 213° Southwest 426 490 34,000  Level Washington Center
Sat 05:42:48 PM 36.0178 -79.8556 213° Southwest 431 496 34,000  Level Washington Center
Sat 05:43:53 PM 35.8794 -79.9458 208° Southwest 436 502 34,000  Level Atlanta Center
Sat 05:44:53 PM 35.7769 -80.0022 204° Southwest 447 514 34,000 500 Level Atlanta Center
Sat 05:45:53 PM 35.6519 -80.0697 204° Southwest 453 521 35,000 900 Climbing Atlanta Center
Sat 05:46:53 PM 35.5392 -80.1264 202° Southwest 453 521 35,800 500 Climbing Atlanta Center
Sat 05:47:53 PM 35.4261 -80.1825 202° Southwest 448 516 36,000 100 Climbing Atlanta Center
Sat 05:48:53 PM 35.3233 -80.2358 203° Southwest 448 516 36,000  Level Atlanta Center
Sat 05:50:47 PM 35.0936 -80.3506 202° Southwest 448 516 36,000  Level Jacksonville Center
Sat 05:51:47 PM 34.9800 -80.4072 202° Southwest 448 516 36,000  Level Jacksonville Center
Sat 05:52:47 PM 34.8667 -80.4686 204° Southwest 448 516 36,000 -50 Level Jacksonville Center
Sat 05:53:47 PM 34.7550 -80.5222 202° Southwest 448 516 35,900 -50 Descending Jacksonville Center
Sat 05:54:47 PM 34.6372 -80.5836 203° Southwest 448 516 35,900  Level Jacksonville Center
Sat 05:55:47 PM 34.5194 -80.6447 203° Southwest 453 521 35,900  Level Jacksonville Center
Sat 05:56:47 PM 34.4286 -80.6900 202° Southwest 453 521 35,900 50 Level Jacksonville Center
Sat 05:57:47 PM 34.2794 -80.7614 202° Southwest 459 528 36,000  Climbing Jacksonville Center
Sat 05:58:47 PM 34.1636 -80.8222 203° Southwest 454 522 35,900 -50 Descending Jacksonville Center
Sat 05:59:47 PM 34.0458 -80.8800 202° Southwest 454 522 35,900  Level Jacksonville Center
Sat 06:00:47 PM 33.9297 -80.9378 202° Southwest 454 522 35,900  Level Jacksonville Center
Sat 06:01:47 PM 33.8117 -80.9953 202° Southwest 454 522 35,900  Level Jacksonville Center
Sat 06:02:47 PM 33.6978 -81.0528 203° Southwest 449 517 35,900 -50 Level Jacksonville Center
Sat 06:03:47 PM 33.5942 -81.1022 202° Southwest 454 522 35,800 -950 Descending Jacksonville Center
Sat 06:04:47 PM 33.4761 -81.1594 202° Southwest 449 517 34,000 -950 Descending Jacksonville Center
Sat 06:05:47 PM 33.3600 -81.2164 202° Southwest 449 517 33,900 -50 Descending Jacksonville Center
Sat 06:06:47 PM 33.2436 -81.2708 201° Southwest 449 517 33,900  Level Jacksonville Center
Sat 06:07:47 PM 33.1256 -81.3275 202° Southwest 449 517 33,900  Level Jacksonville Center
Sat 06:08:47 PM 33.0133 -81.3814 202° Southwest 449 517 33,900  Level Jacksonville Center
Sat 06:09:47 PM 32.8992 -81.4353 202° Southwest 449 517 33,900  Level Jacksonville Center
Sat 06:10:47 PM 32.7831 -81.4917 202° Southwest 449 517 33,900 50 Level Jacksonville Center
Sat 06:11:47 PM 32.6606 -81.5528 203° Southwest 449 517 34,000 50 Climbing Jacksonville Center
Sat 06:12:47 PM 32.5461 -81.6061 201° Southwest 455 524 34,000  Level Jacksonville Center
Sat 06:13:47 PM 32.4403 -81.6569 202° Southwest 452 520 34,000  Level Jacksonville Center
Sat 06:14:47 PM 32.3094 -81.7178 201° Southwest 452 520 34,000  Level Jacksonville Center
Sat 06:15:47 PM 32.2075 -81.7656 202° Southwest 452 520 34,000  Level Jacksonville Center
Sat 06:16:47 PM 32.0786 -81.8261 202° Southwest 452 520 34,000  Level Jacksonville Center
Sat 06:17:47 PM 31.9642 -81.8786 201° Southwest 447 514 34,000  Level Jacksonville Center
Sat 06:18:47 PM 31.8581 -81.9314 203° Southwest 447 514 34,000  Level Jacksonville Center
Sat 06:19:47 PM 31.7311 -81.9911 202° Southwest 453 521 34,000 -50 Level Jacksonville Center
Sat 06:20:47 PM 31.6144 -82.0436 201° Southwest 453 521 33,900 -50 Descending Jacksonville Center
Sat 06:21:47 PM 31.5000 -82.0983 202° Southwest 453 521 33,900  Level Jacksonville Center
Sat 06:22:47 PM 31.3836 -82.1528 202° Southwest 448 516 33,900  Level Jacksonville Center
Sat 06:23:47 PM 31.2647 -82.1975 198° South 448 516 33,900  Level Jacksonville Center
Sat 06:24:47 PM 31.1375 -82.2081 184° South 448 516 33,900  Level Jacksonville Center
Sat 06:25:47 PM 31.0081 -82.2189 184° South 454 522 33,900  Level Jacksonville Center
Sat 06:26:47 PM 30.8808 -82.2317 185° South 467 537 33,900  Level Jacksonville Center
Sat 06:27:47 PM 30.7556 -82.2447 185° South 462 532 33,900  Level Jacksonville Center
Sat 06:28:47 PM 30.6303 -82.2575 185° South 457 526 33,900  Level Jacksonville Center
Sat 06:29:47 PM 30.5050 -82.2658 183° South 462 532 33,900  Level Jacksonville Center
Sat 06:30:47 PM 30.3778 -82.2786 185° South 469 540 33,900  Level Jacksonville Center
Sat 06:31:47 PM 30.2525 -82.2889 184° South 459 528 33,900  Level Jacksonville Center
Sat 06:32:47 PM 30.1253 -82.3019 185° South 464 534 33,900  Level Jacksonville Center
Sat 06:33:47 PM 30.0106 -82.3192 187° South 464 534 33,900 -900 Level Jacksonville Center
Sat 06:34:47 PM 29.8853 -82.3297 184° South 464 534 32,100 -2,050 Descending Jacksonville Center
Sat 06:35:47 PM 29.7497 -82.3375 183° South 459 528 29,800 -2,050 Descending Jacksonville Center
Sat 06:36:47 PM 29.6411 -82.3525 187° South 459 528 28,000 -1,950 Descending Jacksonville Center
Sat 06:37:47 PM 29.5181 -82.3508 179° South 448 516 25,900 -2,000 Descending Jacksonville Center
Sat 06:38:47 PM 29.4031 -82.3372 174° South 436 502 24,000 -1,900 Descending Jacksonville Center
Sat 06:39:47 PM 29.2903 -82.3258 175° South 418 481 22,100 -1,850 Descending Jacksonville Center
Sat 06:40:47 PM 29.1839 -82.3075 171° South 407 468 20,300 -1,750 Descending Jacksonville Center
Sat 06:41:47 PM 29.0814 -82.2986 176° South 389 448 18,600 -1,700 Descending Jacksonville Center
Sat 06:42:47 PM 28.9792 -82.2850 173° South 377 434 16,900 -1,650 Descending Jacksonville Center
Sat 06:43:47 PM 28.8850 -82.2736 174° South 359 413 15,300 -1,400 Descending Jacksonville Center
Sat 06:46:17 PM 28.6333 -82.2500 175° South 341 392 12,000 -1,479 Descending Tampa TRACON
Sat 06:47:18 PM 28.5500 -82.2667 190° South 320 368 10,100 -992 Descending Tampa TRACON
Sat 06:48:18 PM 28.5000 -82.3500 236° Southwest 299 344 10,000 -50 Descending Tampa TRACON
Sat 06:49:18 PM 28.4833 -82.4333 257° West 297 342 10,000 -400 Level Tampa TRACON
Sat 06:50:18 PM 28.4667 -82.5167 257° West 281 323 9,200 -900 Descending Tampa TRACON
Sat 06:51:18 PM 28.4500 -82.6000 257° West 277 319 8,200 -1,000 Descending Tampa TRACON
Sat 06:52:12 PM 28.4167 -82.6833 246° West 278 320 7,300 -1,000 Descending Tampa TRACON
Sat 06:53:12 PM 28.3500 -82.7167 204° Southwest 287 330 6,300 -650 Descending Tampa TRACON
Sat 06:54:12 PM 28.2833 -82.7333 192° South 265 305 6,000 -350 Descending Tampa TRACON
Sat 06:55:12 PM 28.2000 -82.7667 199° South 257 296 5,600 -700 Descending Tampa TRACON
Sat 06:56:12 PM 28.1333 -82.7833 192° South 248 285 4,600 -1,000 Descending Tampa TRACON
Sat 06:57:06 PM 28.0833 -82.8000 196° South 219 252 3,700 -1,000 Descending Tampa TRACON
Sat 06:58:06 PM 28.0333 -82.8000 180° South 189 217 2,700 -905 Descending Tampa TRACON
Sat 06:59:12 PM 27.9833 -82.8000 180° South 171 197 1,800 -550 Descending Tampa TRACON
Sat 07:00:06 PM 27.9333 -82.7833 164° South 162 186 1,600 -105 Descending Tampa TRACON
Sat 07:01:06 PM 27.8833 -82.7667 164° South 159 183 1,600 -300 Level Tampa TRACON
Sat 07:02:06 PM 27.8667 -82.7333 119° Southeast 162 186 1,000 -600 Descending Tampa TRACON
Sat 07:03:06 PM 27.8833 -82.7000 60° Northeast 136 157 400 -600 Descending Tampa TRACON
Sat 07:05:00 PM 27.9100 -82.6875 72° East  Level Estimated
Sat 07:12:00 PM 27.9100 -82.6875 310° West  Level Estimated

Login

Don't have an account? Register now (free) for customized features, flight alerts, and more!